Central Sierra Snow Lab Weather observations

Data are for 10 minute period ending at time listed.
 Day   Time    Incoming  Reflected   Ave.   Ave.    Ave.    Vector  Max.    Ave.    Total    Snow   
  of    of      Solar     Solar      Air    Rel.    Wind    Wind    Wind   Baro.   Precip.   Depth  
Year   Day     Radiation Radiation   Temp.  Humid.  Speed   Dir.    Gust   Press.                   
2015   (PST)    Kw/m2     Kw/m2       F       %      mph     deg.    mph     mb.     in.      in.   
----------------------------------------------------------------------------------------------------
  88   15:20    0.571     999.000     62.0     28     3.8     246     9.2   794.50   18.08   -3.40  
  88   15:30    0.541     999.000     62.3     28     3.2     249     7.2   794.50   18.08   -3.50  
  88   15:40    0.512     999.000     62.1     28     3.3     266     7.6   794.50   18.08   -3.40  
  88   15:50    0.481     999.000     62.4     28     2.7     237     8.2   794.50   18.08   -3.30  
  88   16:00    0.449     999.000     62.3     28     3.2     274     6.8   794.50   18.08   -3.40  
  88   16:10    0.416     999.000     61.7     29     3.5     230     9.9   794.50   18.08    6.40  
  88   16:20    0.238     999.000     61.3     30     3.2     261     8.9   794.60   18.07   148.80  
  88   16:30    0.073     999.000     60.9     30     3.3     228     9.3   794.60   18.07   164.20  
  88   16:40    0.080     999.000     60.7     30     3.2     221     7.9   794.60   18.08   164.30  
  88   16:50    0.107     999.000     61.0     31     2.6     228     9.1   794.70   18.08   164.30  
  88   17:00    0.147     999.000     60.7     30     2.2     255     6.9   794.70   18.08   164.30  
  88   17:10    0.213     999.000     60.2     32     3.0     218     7.6   794.80   18.07   125.20  
  88   17:20    0.083     999.000     59.4     34     2.4     231     6.4   794.80   18.07   16.30  
  88   17:30    0.027     999.000     58.0     37     3.4     220     8.9   794.80   18.07   132.20  
  88   17:40    0.028     999.000     57.3     39     1.8     268     7.4   794.80   18.08   79.20  
  88   17:50    0.024     999.000     56.7     41     2.6     221     6.8   794.90   18.07   -3.10  
  88   18:00    0.014     999.000     55.8     42     1.8     219     5.3   794.90   18.07   -3.00  
  88   18:10    0.009     999.000     54.9     45     1.5     221     5.6   795.00   18.07   -3.00  
  88   18:20    0.005     999.000     54.1     47     1.2     184     2.6   795.00   18.07   -2.90  
  88   18:30    0.001     999.000     53.3     50     0.6     191     3.2   795.10   18.07   -2.90  
  88   18:40    0.000     999.000     51.9     53     0.4      88     1.8   795.20   18.08   -3.00  
  88   18:50    0.000     999.000     50.7     56     1.1      50     2.3   795.40   18.07   -3.00  
  88   19:00    0.000     999.000     49.4     59     1.8      30     2.6   795.50   18.06   -2.90  
  88   19:10    0.000     999.000     48.3     62     1.9      23     2.9   795.60   18.08   -2.90  
  88   19:20    0.000     999.000     47.3     64     2.4      24     3.5   795.70   18.07   -3.00  
  88   19:30    0.000     999.000     46.5     66     1.7      27     2.7   795.70   18.06   -3.00  
  88   19:40    0.000     999.000     45.8     67     1.6      26     2.8   795.80   18.08   -2.90  
  88   19:50    0.000     999.000     45.1     68     2.3      30     3.4   795.80   18.07   -2.90  
  88   20:00    0.000     999.000     44.5     69     3.1      27     4.0   795.80   18.07   -2.90  
  88   20:10    0.000     999.000     44.0     70     1.8      33     2.5   795.90   18.08   -2.90  
  88   20:20    0.000     999.000     43.5     71     1.4      34     3.2   796.00   18.08   -2.80  
  88   20:30    0.000     999.000     43.1     72     2.0      37     3.9   796.10   18.08   -2.70  
  88   20:40    0.000     999.000     42.8     72     2.4      33     5.2   796.10   18.07   -2.70  
  88   20:50    0.000     999.000     42.5     72     2.0      42     3.8   796.10   18.08   -2.70  
  88   21:00    0.000     999.000     42.2     72     1.6      40     3.2   796.20   18.08   -2.70  
  88   21:10    0.000     999.000     41.7     73     2.2      34     3.7   796.20   18.08   -2.80  
  88   21:20    0.000     999.000     41.2     73     2.4      35     3.8   796.20   18.07   -2.80  
  88   21:30    0.000     999.000     41.0     73     2.8      26     3.5   796.20   18.08   -2.90  
  88   21:40    0.000     999.000     40.6     73     3.1      28     3.7   796.10   18.08   -2.80  
  88   21:50    0.000     999.000     40.4     73     3.0      28     4.1   796.10   18.07   -2.80  
  88   22:00    0.000     999.000     40.1     73     3.3      29     4.9   796.00   18.09   -2.80  
  88   22:10    0.000     999.000     40.0     73     3.4      32     6.3   796.00   18.09   -2.80  
  88   22:20    0.000     999.000     39.9     73     3.5      32     5.4   795.90   18.09   -2.80  
  88   22:30    0.000     999.000     39.6     74     2.1      41     4.0   796.00   18.09   -2.80  
  88   22:40    0.000     999.000     39.5     74     3.7      28     5.0   796.00   18.08   -2.80  
  88   22:50    0.000     999.000     39.5     73     4.1      24     5.0   796.00   18.09   -2.80  
  88   23:00    0.000     999.000     39.6     72     3.0      28     5.0   795.90   18.08   -2.80  
  88   23:10    0.000     999.000     39.0     73     1.1      52     2.1   795.90   18.08   -2.80  
  88   23:20    0.000     999.000     38.6     74     1.4      41     2.8   795.80   18.08   -2.80  
  88   23:30    0.000     999.000     38.3     75     2.7      31     5.3   795.70   18.09   -2.80  
  88   23:40    0.000     999.000     38.5     74     3.5      32     6.1   795.70   18.09   -2.80  
  88   23:50    0.000     999.000     38.2     75     2.6      35     4.3   795.70   18.08   -2.80  
  89    0:00    0.000     999.000     38.1     76     2.7      38     4.7   795.70   18.08   -2.80  
  89    0:10    0.000     999.000     37.9     74     2.2      35     3.2   795.80   18.08   -2.80  
  89    0:20    0.000     999.000     37.8     76     1.7      42     3.2   795.80   18.08   -2.70  
  89    0:30    0.000     999.000     37.9     74     2.7      29     4.6   795.70   18.08   -2.80  
  89    0:40    0.000     999.000     37.9     74     3.3      26     4.3   795.70   18.08   -2.80  
  89    0:50    0.000     999.000     37.5     74     3.2      31     4.3   795.70   18.07   -2.80  
  89    1:00    0.000     999.000     37.4     75     3.6      29     4.6   795.70   18.08   -2.80  
  89    1:10    0.000     999.000     37.2     75     2.3      37     4.0   795.60   18.08   -2.80  
  89    1:20    0.000     999.000     37.1     75     3.0      32     4.5   795.60   18.08   -2.80  
  89    1:30    0.000     999.000     37.0     75     2.5      37     4.0   795.50   18.08   -2.80  
  89    1:40    0.000     999.000     36.8     75     1.5      45     5.2   795.40   18.08   -2.70  
  89    1:50    0.000     999.000     36.8     74     3.1      33     5.2   795.40   18.09   -2.80  
  89    2:00    0.000     999.000     36.6     75     2.1      40     4.8   795.30   18.09   -2.80  
  89    2:10    0.000     999.000     36.7     75     3.1      31     5.4   795.30   18.08   -2.80  
  89    2:20    0.000     999.000     36.6     75     2.8      33     5.3   795.20   18.09   -2.80  
  89    2:30    0.000     999.000     36.9     75     3.2      31     7.1   795.20   18.08   -2.80  
  89    2:40    0.000     999.000     36.6     76     2.0      42     4.6   795.20   18.08   -2.90  
  89    2:50    0.000     999.000     36.3     78     2.7      34     5.3   795.20   18.09   -2.90  
  89    3:00    0.000     999.000     36.3     78     3.1      31     4.7   795.20   18.07   -2.90  
  89    3:10    0.000     999.000     36.3     78     3.4      32     6.0   795.10   18.08   -2.90  
  89    3:20    0.000     999.000     36.2     77     2.7      35     5.1   795.00   18.09   -2.90  
  89    3:30    0.000     999.000     35.9     78     3.1      31     4.8   795.00   18.09   -2.90  
  89    3:40    0.000     999.000     35.8     77     2.1      52     5.6   795.00   18.08   -2.90  
  89    3:50    0.000     999.000     35.7     77     2.1      40     4.4   795.00   18.08   -2.80  
  89    4:00    0.000     999.000     35.7     75     2.7      33     5.5   795.00   18.08   -2.80  
  89    4:10    0.000     999.000     35.4     76     2.0      41     3.8   795.00   18.08   -2.80  
  89    4:20    0.000     999.000     35.2     76     1.8      44     2.9   795.00   18.08   -2.80  
  89    4:30    0.000     999.000     35.1     76     1.9      41     3.6   795.00   18.08   -2.80  
  89    4:40    0.000     999.000     35.0     76     1.9      45     4.0   795.00   18.08   -2.80  
  89    4:50    0.000     999.000     35.1     76     2.7      37     5.4   795.00   18.08   -2.80  
  89    5:00    0.000     999.000     35.0     76     1.9      40     4.8   795.00   18.08   -2.80  
  89    5:10    0.000     999.000     34.8     77     2.5      39     5.4   795.00   18.08   -2.80  
  89    5:20    0.000     999.000     34.8     78     1.8      48     3.8   795.10   18.08   -2.80  
  89    5:30    0.000     999.000     34.5     80     1.8      44     2.3   795.20   18.09   -2.80  
  89    5:40    0.000     999.000     34.4     81     1.7      38     4.6   795.10   18.08   -2.80  
  89    5:50    0.002     999.000     34.7     80     3.0      36     5.3   795.10   18.09   -2.80  
  89    6:00    0.004     999.000     34.9     80     4.4      27     5.5   795.10   18.09   -2.90  
  89    6:10    0.006     999.000     35.0     80     2.8      26     5.0   795.10   18.09   -2.80  
  89    6:20    0.008     999.000     34.9     81     2.2      33     5.0   795.10   18.08   -2.80  
  89    6:30    0.010     999.000     35.0     80     3.7      31     5.8   795.20   18.08   -2.80  
  89    6:40    0.012     999.000     34.8     80     1.9      42     3.4   795.20   18.08   -2.80  
  89    6:50    0.014     999.000     35.1     77     2.2      35     3.8   795.20   18.09   -2.80  
  89    7:00    0.017     999.000     35.7     76     1.6      49     2.9   795.30   18.08   -2.80  
  89    7:10    0.022     999.000     36.7     74     1.7      57     2.4   795.20   18.09   -2.80  
  89    7:20    0.165     999.000     38.0     72     2.2      61     3.0   795.20   18.10   -2.70  
  89    7:30    0.102     999.000     39.6     69     1.8      56     2.6   795.30   18.10   -3.10  
  89    7:40    0.307     999.000     41.1     69     1.3      61     1.9   795.30   18.10   -3.20  
  89    7:50    0.341     999.000     43.4     65     1.1      46     1.8   795.30   18.09   -3.60  
  89    8:00    0.386     999.000     45.6     61     1.2      50     1.9   795.30   18.09   -3.70  
  89    8:10    0.452     999.000     47.4     59     0.1      60     1.1   795.30   18.09   -3.90  
  89    8:20    0.393     999.000     50.1     54     0.1     198     1.7   795.30   18.08   -4.50  
  89    8:30    0.240     999.000     51.8     50     0.1      36     1.5   795.30   18.08   -4.20  
  89    8:40    0.416     999.000     51.8     51     1.2      32     1.9   795.30   18.08   -4.00  
  89    8:50    0.514     999.000     53.9     35     0.8     317     2.5   795.40   18.08   -4.20  
  89    9:00    0.562     999.000     55.5     34     1.4     209     3.4   795.40   18.08   -4.20  
  89    9:10    0.592     999.000     56.8     30     1.6     216     4.9   795.40   18.08   -4.20  
  89    9:20    0.629     999.000     57.4     29     1.9     185     4.8   795.40   18.09   -4.40  
  89    9:30    0.660     999.000     58.6     27     2.3     223     5.2   795.40   18.09   -4.30  
  89    9:40    0.576     999.000     59.2     24     2.1     249     5.8   795.40   18.08   -4.20  
  89    9:50    0.642     999.000     59.5     22     1.9     242     5.0   795.40   18.08   -4.30  
  89   10:00    0.712     999.000     60.5     22     1.7     217     6.3   795.40   18.08   -4.40  
  89   10:10    0.734     999.000     60.7     24     2.3     240     4.8   795.40   18.08   -4.30  
  89   10:20    0.727     999.000     60.3     23     2.5     231     6.0   795.30   18.08   -4.20  
  89   10:30    0.628     999.000     60.5     25     2.9     199     7.2   795.30   18.07   -4.20  
  89   10:40    0.785     999.000     61.3     25     2.6     229     6.9   795.20   18.08   -4.10  
  89   10:50    0.652     999.000     62.0     26     2.3     212     7.7   795.20   18.08   -4.10  
  89   11:00    0.787     999.000     62.1     27     2.2     249     6.1   795.20   18.08   -4.20  
  89   11:10    0.876     999.000     62.4     26     3.0     209     6.2   795.20   18.07   -4.20  
  89   11:20    0.853     999.000     61.9     26     4.0     190    10.2   795.10   18.08   -4.10  
  89   11:30    0.672     999.000     62.0     27     2.9     222     6.7   795.10   18.08   -4.00  
  89   11:40    0.833     999.000     62.0     28     3.4     202     8.8   795.00   18.08   -3.90  
  89   11:50    0.863     999.000     62.9     26     3.5     242     9.7   794.90   18.08   -4.10  
  89   12:00    0.811     999.000     62.8     26     4.2     202    11.9   794.90   18.08   -3.90  
  89   12:10    0.842     999.000     63.1     26     4.4     198     9.9   794.90   18.08   -3.90  
  89   12:20    0.809     999.000     63.2     26     3.5     212     7.9   794.80   18.08   -3.90  
  89   12:30    0.660     999.000     63.2     25     3.8     193    10.1   794.80   18.07   -3.80  
  89   12:40    0.772     999.000     63.0     25     3.6     194    10.0   794.70   18.07   -3.70  
  89   12:50    0.843     999.000     63.6     26     3.9     190     8.2   794.60   18.08   -3.50  
  89   13:00    0.792     999.000     63.2     27     4.3     205    11.3   794.60   18.08   -3.70  
  89   13:10    0.837     999.000     63.3     29     3.4     218     8.1   794.40   18.08   -3.80  
  89   13:20    0.769     999.000     63.9     30     3.4     218     8.9   794.40   18.06   -3.80  
  89   13:30    0.790     999.000     63.0     30     4.4     213    13.9   794.30   18.08   -3.70  
  89   13:40    0.718     999.000     62.4     30     4.3     226    10.5   794.20   18.08   -3.70  
  89   13:50    0.654     999.000     61.7     30     4.4     214    12.8   794.20   18.08   -3.50  
  89   14:00    0.641     999.000     61.7     29     4.3     240    12.8   794.10   18.08   -3.50  
  89   14:10    0.398     999.000     60.9     31     3.8     233     9.7   794.10   18.08   -3.50  
  89   14:20    0.604     999.000     60.5     32     3.5     216    10.1   794.10   18.08   20.30  
  89   14:30    0.435     999.000     60.0     31     3.8     222    12.9   794.10   18.08   141.70  
  89   14:40    0.579     999.000     59.8     31     5.1     246    11.6   794.00   18.08   153.00  
  89   14:50    0.547     999.000     60.0     30     3.5     228     9.3   793.90   18.09   162.70  
  89   15:00    0.585     999.000     59.9     30     3.5     220     8.6   793.80   18.08   162.70  
  89   15:10    0.613     999.000     60.3     31     3.6     257    10.8   793.70   18.08   162.70  

Return to Central Sierra Snow Lab graphs page.


Western Regional Climate Center,wrcc@dri.edu